sensor_id;sensor_type;location;lat;lon;timestamp;pressure;altitude;pressure_sealevel;temperature;humidity
30819;BME280;17546;42.674;23.284;2022-11-18T00:02:03;93701.91;;;17.61;47.73
30819;BME280;17546;42.674;23.284;2022-11-18T00:04:29;93695.28;;;17.48;47.84
30819;BME280;17546;42.674;23.284;2022-11-18T00:06:54;93703.63;;;17.56;47.58
30819;BME280;17546;42.674;23.284;2022-11-18T00:09:20;93714.88;;;17.48;47.87
30819;BME280;17546;42.674;23.284;2022-11-18T00:11:45;93710.66;;;17.65;47.57
30819;BME280;17546;42.674;23.284;2022-11-18T00:14:29;93698.72;;;17.64;47.16
30819;BME280;17546;42.674;23.284;2022-11-18T00:16:59;93699.50;;;17.57;47.39
30819;BME280;17546;42.674;23.284;2022-11-18T00:19:33;93698.06;;;17.48;47.84
30819;BME280;17546;42.674;23.284;2022-11-18T00:22:00;93701.19;;;17.52;47.45
30819;BME280;17546;42.674;23.284;2022-11-18T00:24:25;93704.06;;;17.37;47.62
30819;BME280;17546;42.674;23.284;2022-11-18T00:26:51;93695.91;;;17.31;47.64
30819;BME280;17546;42.674;23.284;2022-11-18T00:29:17;93708.25;;;17.21;48.30
30819;BME280;17546;42.674;23.284;2022-11-18T00:31:43;93700.34;;;17.34;47.80
30819;BME280;17546;42.674;23.284;2022-11-18T00:34:11;93707.06;;;17.39;47.82
30819;BME280;17546;42.674;23.284;2022-11-18T00:36:37;93709.66;;;17.37;47.72
30819;BME280;17546;42.674;23.284;2022-11-18T00:39:03;93708.41;;;17.30;47.88
30819;BME280;17546;42.674;23.284;2022-11-18T00:41:28;93703.91;;;17.35;47.92
30819;BME280;17546;42.674;23.284;2022-11-18T00:44:14;93703.03;;;17.25;48.06
30819;BME280;17546;42.674;23.284;2022-11-18T00:46:40;93707.47;;;17.35;47.58
30819;BME280;17546;42.674;23.284;2022-11-18T00:49:06;93714.53;;;17.37;47.69
30819;BME280;17546;42.674;23.284;2022-11-18T00:51:31;93700.34;;;17.42;47.41
30819;BME280;17546;42.674;23.284;2022-11-18T00:53:56;93708.19;;;17.36;47.45
30819;BME280;17546;42.674;23.284;2022-11-18T00:56:22;93711.53;;;17.42;47.17
30819;BME280;17546;42.674;23.284;2022-11-18T00:58:47;93708.03;;;17.34;47.46
30819;BME280;17546;42.674;23.284;2022-11-18T01:01:17;93716.78;;;17.38;47.15
30819;BME280;17546;42.674;23.284;2022-11-18T01:03:42;93708.56;;;17.40;47.04
30819;BME280;17546;42.674;23.284;2022-11-18T01:06:08;93703.31;;;17.44;47.17
30819;BME280;17546;42.674;23.284;2022-11-18T01:08:34;93703.75;;;17.25;47.46
30819;BME280;17546;42.674;23.284;2022-11-18T01:11:00;93699.63;;;17.34;47.19
30819;BME280;17546;42.674;23.284;2022-11-18T01:13:48;93712.28;;;17.35;47.26
30819;BME280;17546;42.674;23.284;2022-11-18T01:16:18;93706.69;;;17.35;47.36
30819;BME280;17546;42.674;23.284;2022-11-18T01:18:44;93706.94;;;17.22;47.56
30819;BME280;17546;42.674;23.284;2022-11-18T01:21:09;93713.50;;;17.17;47.46
30819;BME280;17546;42.674;23.284;2022-11-18T01:23:34;93715.00;;;17.18;47.42
30819;BME280;17546;42.674;23.284;2022-11-18T01:26:03;93708.25;;;17.21;47.60
30819;BME280;17546;42.674;23.284;2022-11-18T01:28:29;93707.53;;;17.12;47.39
30819;BME280;17546;42.674;23.284;2022-11-18T01:31:23;93707.53;;;17.12;47.34
30819;BME280;17546;42.674;23.284;2022-11-18T01:33:47;93710.50;;;17.22;46.93
30819;BME280;17546;42.674;23.284;2022-11-18T01:36:18;93708.69;;;17.09;47.29
30819;BME280;17546;42.674;23.284;2022-11-18T01:38:44;93714.63;;;17.13;47.12
30819;BME280;17546;42.674;23.284;2022-11-18T01:41:09;93703.44;;;17.13;47.04
30819;BME280;17546;42.674;23.284;2022-11-18T01:44:00;93704.56;;;17.10;47.23
30819;BME280;17546;42.674;23.284;2022-11-18T01:46:29;93690.78;;;17.05;47.25
30819;BME280;17546;42.674;23.284;2022-11-18T01:49:06;93698.59;;;17.06;47.10
30819;BME280;17546;42.674;23.284;2022-11-18T01:51:36;93697.31;;;17.07;47.14
30819;BME280;17546;42.674;23.284;2022-11-18T01:54:08;93700.47;;;17.04;47.11
30819;BME280;17546;42.674;23.284;2022-11-18T01:56:44;93707.03;;;16.99;47.25
30819;BME280;17546;42.674;23.284;2022-11-18T01:59:14;93697.91;;;16.90;47.31
30819;BME280;17546;42.674;23.284;2022-11-18T02:01:42;93705.56;;;16.98;47.34
30819;BME280;17546;42.674;23.284;2022-11-18T02:04:08;93699.78;;;16.96;47.50
30819;BME280;17546;42.674;23.284;2022-11-18T02:06:35;93703.88;;;17.02;47.30
30819;BME280;17546;42.674;23.284;2022-11-18T02:09:01;93702.53;;;17.11;47.29
30819;BME280;17546;42.674;23.284;2022-11-18T02:11:27;93700.84;;;17.08;47.18
30819;BME280;17546;42.674;23.284;2022-11-18T02:14:10;93705.56;;;16.98;47.60
30819;BME280;17546;42.674;23.284;2022-11-18T02:17:03;93704.38;;;17.08;47.41
30819;BME280;17546;42.674;23.284;2022-11-18T02:30:22;93699.19;;;16.97;47.21
30819;BME280;17546;42.674;23.284;2022-11-18T02:32:52;93703.50;;;16.98;47.22
30819;BME280;17546;42.674;23.284;2022-11-18T02:35:27;93692.91;;;16.89;47.30
30819;BME280;17546;42.674;23.284;2022-11-18T02:37:57;93697.19;;;16.90;47.20
30819;BME280;17546;42.674;23.284;2022-11-18T02:40:30;93691.78;;;16.84;47.32
30819;BME280;17546;42.674;23.284;2022-11-18T02:43:11;93696.06;;;16.78;47.26
30819;BME280;17546;42.674;23.284;2022-11-18T02:45:40;93691.22;;;16.86;47.08
30819;BME280;17546;42.674;23.284;2022-11-18T02:48:09;93686.75;;;16.83;46.96
30819;BME280;17546;42.674;23.284;2022-11-18T02:50:37;93687.88;;;16.64;47.32
30819;BME280;17546;42.674;23.284;2022-11-18T02:53:07;93683.59;;;16.63;47.30
30819;BME280;17546;42.674;23.284;2022-11-18T02:55:43;93695.34;;;16.62;47.48
30819;BME280;17546;42.674;23.284;2022-11-18T02:58:11;93701.31;;;16.66;47.26
30819;BME280;17546;42.674;23.284;2022-11-18T03:00:38;93704.84;;;16.66;47.24
30819;BME280;17546;42.674;23.284;2022-11-18T03:03:27;93702.81;;;16.67;47.23
30819;BME280;17546;42.674;23.284;2022-11-18T03:06:25;93698.53;;;16.50;47.50
30819;BME280;17546;42.674;23.284;2022-11-18T03:11:59;93706.94;;;16.43;47.63
30819;BME280;17546;42.674;23.284;2022-11-18T03:17:25;93697.59;;;16.56;47.41
30819;BME280;17546;42.674;23.284;2022-11-18T03:22:33;93691.66;;;16.44;47.48
30819;BME280;17546;42.674;23.284;2022-11-18T03:25:08;93692.94;;;16.50;47.44
30819;BME280;17546;42.674;23.284;2022-11-18T03:27:52;93695.94;;;16.37;47.32
30819;BME280;17546;42.674;23.284;2022-11-18T03:30:21;93701.91;;;16.41;47.50
30819;BME280;17546;42.674;23.284;2022-11-18T03:32:55;93696.13;;;16.39;47.61
30819;BME280;17546;42.674;23.284;2022-11-18T03:35:24;93697.44;;;16.30;47.90
30819;BME280;17546;42.674;23.284;2022-11-18T03:37:55;93691.28;;;16.24;47.61
30819;BME280;17546;42.674;23.284;2022-11-18T03:40:25;93689.44;;;16.19;48.02
30819;BME280;17546;42.674;23.284;2022-11-18T03:43:00;93688.28;;;16.38;47.73
30819;BME280;17546;42.674;23.284;2022-11-18T03:45:41;93696.31;;;16.33;47.83
30819;BME280;17546;42.674;23.284;2022-11-18T03:48:17;93687.56;;;16.37;47.80
30819;BME280;17546;42.674;23.284;2022-11-18T03:51:05;93669.66;;;16.48;47.55
30819;BME280;17546;42.674;23.284;2022-11-18T03:53:33;93672.13;;;16.21;48.02
30819;BME280;17546;42.674;23.284;2022-11-18T03:56:14;93671.56;;;16.30;47.85
30819;BME280;17546;42.674;23.284;2022-11-18T04:01:40;93668.97;;;16.17;48.10
30819;BME280;17546;42.674;23.284;2022-11-18T04:04:18;93675.84;;;16.00;48.70
30819;BME280;17546;42.674;23.284;2022-11-18T04:06:49;93670.44;;;16.10;48.51
30819;BME280;17546;42.674;23.284;2022-11-18T04:09:29;93673.63;;;16.14;48.37
30819;BME280;17546;42.674;23.284;2022-11-18T04:12:03;93668.16;;;15.55;49.79
30819;BME280;17546;42.674;23.284;2022-11-18T04:14:34;93679.19;;;16.06;48.60
30819;BME280;17546;42.674;23.284;2022-11-18T04:17:14;93670.81;;;15.83;49.00
30819;BME280;17546;42.674;23.284;2022-11-18T04:19:41;93680.88;;;16.09;48.42
30819;BME280;17546;42.674;23.284;2022-11-18T04:22:07;93672.31;;;15.84;49.10
30819;BME280;17546;42.674;23.284;2022-11-18T04:24:33;93680.69;;;16.15;48.37
30819;BME280;17546;42.674;23.284;2022-11-18T04:26:59;93682.34;;;16.18;48.23
30819;BME280;17546;42.674;23.284;2022-11-18T04:29:24;93688.31;;;16.22;48.15
30819;BME280;17546;42.674;23.284;2022-11-18T04:31:50;93679.19;;;16.29;47.92
30819;BME280;17546;42.674;23.284;2022-11-18T04:34:15;93683.28;;;16.13;48.50
30819;BME280;17546;42.674;23.284;2022-11-18T04:36:41;93689.63;;;16.21;48.39
30819;BME280;17546;42.674;23.284;2022-11-18T04:39:06;93696.31;;;16.26;48.41
30819;BME280;17546;42.674;23.284;2022-11-18T04:41:32;93692.78;;;16.02;48.73
30819;BME280;17546;42.674;23.284;2022-11-18T04:44:16;93704.34;;;16.14;48.45
30819;BME280;17546;42.674;23.284;2022-11-18T04:46:42;93708.06;;;16.24;48.27
30819;BME280;17546;42.674;23.284;2022-11-18T04:49:12;93707.69;;;16.28;48.09
30819;BME280;17546;42.674;23.284;2022-11-18T04:51:39;93705.47;;;16.34;48.02
30819;BME280;17546;42.674;23.284;2022-11-18T04:54:06;93701.38;;;16.12;48.65
30819;BME280;17546;42.674;23.284;2022-11-18T04:56:31;93698.00;;;16.06;48.85
30819;BME280;17546;42.674;23.284;2022-11-18T04:58:58;93709.56;;;16.10;48.64
30819;BME280;17546;42.674;23.284;2022-11-18T05:01:25;93710.28;;;16.18;48.43
30819;BME280;17546;42.674;23.284;2022-11-18T05:03:50;93712.91;;;16.16;48.36
30819;BME280;17546;42.674;23.284;2022-11-18T05:06:16;93697.25;;;16.13;48.46
30819;BME280;17546;42.674;23.284;2022-11-18T05:08:41;93702.47;;;16.24;48.48
30819;BME280;17546;42.674;23.284;2022-11-18T05:11:07;93711.59;;;16.17;48.89
30819;BME280;17546;42.674;23.284;2022-11-18T05:13:51;93701.38;;;16.12;49.20
30819;BME280;17546;42.674;23.284;2022-11-18T05:16:16;93706.19;;;15.88;49.83
30819;BME280;17546;42.674;23.284;2022-11-18T05:18:46;93709.75;;;16.12;49.24
30819;BME280;17546;42.674;23.284;2022-11-18T05:21:11;93706.38;;;16.06;49.48
30819;BME280;17546;42.674;23.284;2022-11-18T05:23:37;93721.47;;;16.18;49.40
30819;BME280;17546;42.674;23.284;2022-11-18T05:26:07;93709.53;;;16.18;49.44
30819;BME280;17546;42.674;23.284;2022-11-18T05:28:33;93714.41;;;16.25;49.25
30819;BME280;17546;42.674;23.284;2022-11-18T05:30:59;93717.00;;;16.15;49.48
30819;BME280;17546;42.674;23.284;2022-11-18T05:33:30;93715.16;;;16.25;49.38
30819;BME280;17546;42.674;23.284;2022-11-18T05:35:55;93722.78;;;16.17;49.51
30819;BME280;17546;42.674;23.284;2022-11-18T05:38:21;93718.50;;;16.01;49.67
30819;BME280;17546;42.674;23.284;2022-11-18T05:40:46;93717.34;;;15.96;49.98
30819;BME280;17546;42.674;23.284;2022-11-18T05:43:11;93718.84;;;15.89;50.14
30819;BME280;17546;42.674;23.284;2022-11-18T05:45:38;93717.38;;;16.04;49.69
30819;BME280;17546;42.674;23.284;2022-11-18T05:48:04;93718.84;;;15.82;50.29
30819;BME280;17546;42.674;23.284;2022-11-18T05:50:32;93713.63;;;15.94;50.02
30819;BME280;17546;42.674;23.284;2022-11-18T05:52:58;93709.16;;;15.90;50.13
30819;BME280;17546;42.674;23.284;2022-11-18T05:55:27;93714.03;;;16.05;49.78
30819;BME280;17546;42.674;23.284;2022-11-18T05:57:54;93704.53;;;16.01;50.30
30819;BME280;17546;42.674;23.284;2022-11-18T06:00:19;93704.31;;;15.83;50.62
30819;BME280;17546;42.674;23.284;2022-11-18T06:02:51;93705.25;;;16.09;50.25
30819;BME280;17546;42.674;23.284;2022-11-18T06:05:21;93705.06;;;16.07;50.17
30819;BME280;17546;42.674;23.284;2022-11-18T06:07:48;93712.16;;;16.00;50.35
30819;BME280;17546;42.674;23.284;2022-11-18T06:10:20;93708.63;;;15.92;50.80
30819;BME280;17546;42.674;23.284;2022-11-18T06:12:50;93701.53;;;16.06;50.31
30819;BME280;17546;42.674;23.284;2022-11-18T06:15:22;93708.44;;;16.13;50.48
30819;BME280;17546;42.674;23.284;2022-11-18T06:17:53;93707.88;;;16.22;50.21
30819;BME280;17546;42.674;23.284;2022-11-18T06:20:24;93701.34;;;15.97;51.10
30819;BME280;17546;42.674;23.284;2022-11-18T06:22:53;93709.66;;;15.66;51.94
30819;BME280;17546;42.674;23.284;2022-11-18T06:25:25;93701.56;;;15.99;51.33
30819;BME280;17546;42.674;23.284;2022-11-18T06:27:53;93699.47;;;15.84;51.92
30819;BME280;17546;42.674;23.284;2022-11-18T06:30:20;93698.47;;;15.50;52.98
30819;BME280;17546;42.674;23.284;2022-11-18T06:32:45;93699.84;;;15.21;53.73
30819;BME280;17546;42.674;23.284;2022-11-18T06:35:11;93707.28;;;15.78;52.50
30819;BME280;17546;42.674;23.284;2022-11-18T06:37:36;93701.69;;;15.78;52.57
30819;BME280;17546;42.674;23.284;2022-11-18T06:40:05;93702.84;;;15.98;52.20
30819;BME280;17546;42.674;23.284;2022-11-18T06:42:30;93696.69;;;16.07;51.76
30819;BME280;17546;42.674;23.284;2022-11-18T06:45:14;93704.34;;;16.14;51.77
30819;BME280;17546;42.674;23.284;2022-11-18T06:47:40;93699.84;;;15.96;52.04
30819;BME280;17546;42.674;23.284;2022-11-18T06:50:06;93695.59;;;16.10;51.92
30819;BME280;17546;42.674;23.284;2022-11-18T06:52:31;93701.69;;;15.70;52.32
30819;BME280;17546;42.674;23.284;2022-11-18T06:54:57;93699.47;;;16.07;51.93
30819;BME280;17546;42.674;23.284;2022-11-18T06:57:23;93704.34;;;16.14;51.81
30819;BME280;17546;42.674;23.284;2022-11-18T06:59:48;93700.06;;;16.13;51.95
30819;BME280;17546;42.674;23.284;2022-11-18T07:02:13;93703.41;;;16.35;51.53
30819;BME280;17546;42.674;23.284;2022-11-18T07:04:39;93697.81;;;16.35;51.71
30819;BME280;17546;42.674;23.284;2022-11-18T07:07:08;93691.66;;;16.51;51.27
30819;BME280;17546;42.674;23.284;2022-11-18T07:09:34;93692.75;;;16.56;51.49
30819;BME280;17546;42.674;23.284;2022-11-18T07:12:00;93704.34;;;16.45;51.82
30819;BME280;17546;42.674;23.284;2022-11-18T07:14:25;93703.75;;;16.46;51.73
30819;BME280;17546;42.674;23.284;2022-11-18T07:16:51;93703.59;;;16.14;52.59
30819;BME280;17546;42.674;23.284;2022-11-18T07:19:16;93678.22;;;16.50;51.63
30819;BME280;17546;42.674;23.284;2022-11-18T07:21:41;93672.88;;;16.21;52.29
30819;BME280;17546;42.674;23.284;2022-11-18T07:24:13;93665.97;;;16.30;52.25
30819;BME280;17546;42.674;23.284;2022-11-18T07:26:38;93664.66;;;16.31;52.13
30819;BME280;17546;42.674;23.284;2022-11-18T07:29:04;93674.16;;;16.20;52.74
30819;BME280;17546;42.674;23.284;2022-11-18T07:31:30;93668.31;;;16.64;51.93
30819;BME280;17546;42.674;23.284;2022-11-18T07:33:56;93658.47;;;16.48;52.29
30819;BME280;17546;42.674;23.284;2022-11-18T07:36:27;93663.34;;;16.32;52.79
30819;BME280;17546;42.674;23.284;2022-11-18T07:38:53;93662.97;;;16.05;53.47
30819;BME280;17546;42.674;23.284;2022-11-18T07:41:24;93670.03;;;16.44;52.74
30819;BME280;17546;42.674;23.284;2022-11-18T07:43:51;93653.50;;;16.16;53.58
30819;BME280;17546;42.674;23.284;2022-11-18T07:46:23;93654.38;;;16.49;52.92
30819;BME280;17546;42.674;23.284;2022-11-18T07:48:51;93652.50;;;16.59;53.20
30819;BME280;17546;42.674;23.284;2022-11-18T07:51:18;93678.44;;;16.37;53.68
30819;BME280;17546;42.674;23.284;2022-11-18T07:53:44;93674.25;;;16.84;52.71
30819;BME280;17546;42.674;23.284;2022-11-18T07:56:12;93676.72;;;16.57;53.42
30819;BME280;17546;42.674;23.284;2022-11-18T07:58:39;93680.78;;;16.79;53.09
30819;BME280;17546;42.674;23.284;2022-11-18T08:01:17;93695.47;;;17.02;52.58
30819;BME280;17546;42.674;23.284;2022-11-18T08:03:44;93709.28;;;17.00;52.70
30819;BME280;17546;42.674;23.284;2022-11-18T08:06:11;93710.78;;;16.78;52.97
30819;BME280;17546;42.674;23.284;2022-11-18T08:08:38;93717.66;;;17.00;52.34
30819;BME280;17546;42.674;23.284;2022-11-18T08:11:10;93718.97;;;16.99;52.57
30819;BME280;17546;42.674;23.284;2022-11-18T08:13:36;93715.00;;;17.18;52.12
30819;BME280;17546;42.674;23.284;2022-11-18T08:16:02;93704.75;;;17.12;52.33
30819;BME280;17546;42.674;23.284;2022-11-18T08:18:29;93691.84;;;17.25;51.85
30819;BME280;17546;42.674;23.284;2022-11-18T08:20:55;93685.97;;;16.98;52.39
30819;BME280;17546;42.674;23.284;2022-11-18T08:23:20;93706.00;;;17.27;51.77
30819;BME280;17546;42.674;23.284;2022-11-18T08:25:46;93682.22;;;16.95;52.45
30819;BME280;17546;42.674;23.284;2022-11-18T08:28:13;93670.59;;;17.14;52.16
30819;BME280;17546;42.674;23.284;2022-11-18T08:30:39;93690.69;;;17.28;52.05
30819;BME280;17546;42.674;23.284;2022-11-18T08:33:05;93660.97;;;17.00;52.81
30819;BME280;17546;42.674;23.284;2022-11-18T08:35:31;93662.69;;;17.28;52.36
30819;BME280;17546;42.674;23.284;2022-11-18T08:37:57;93660.22;;;16.99;52.88
30819;BME280;17546;42.674;23.284;2022-11-18T08:40:23;93651.41;;;17.10;53.16
30819;BME280;17546;42.674;23.284;2022-11-18T08:42:49;93642.34;;;16.94;53.34
30819;BME280;17546;42.674;23.284;2022-11-18T08:45:14;93660.91;;;17.48;52.18
30819;BME280;17546;42.674;23.284;2022-11-18T08:47:40;93664.97;;;17.54;52.20
30819;BME280;17546;42.674;23.284;2022-11-18T08:50:07;93628.06;;;16.67;54.08
30819;BME280;17546;42.674;23.284;2022-11-18T08:52:33;93637.06;;;17.06;53.10
30819;BME280;17546;42.674;23.284;2022-11-18T08:54:59;93633.59;;;17.31;52.88
30819;BME280;17546;42.674;23.284;2022-11-18T08:57:25;93625.72;;;17.37;52.73
30819;BME280;17546;42.674;23.284;2022-11-18T08:59:50;93616.38;;;17.67;52.25
30819;BME280;17546;42.674;23.284;2022-11-18T09:02:19;93612.13;;;17.59;52.61
30819;BME280;17546;42.674;23.284;2022-11-18T09:04:49;93606.66;;;17.43;53.01
30819;BME280;17546;42.674;23.284;2022-11-18T09:07:16;93600.44;;;17.77;52.20
30819;BME280;17546;42.674;23.284;2022-11-18T09:09:41;93599.19;;;17.96;52.08
30819;BME280;17546;42.674;23.284;2022-11-18T09:12:07;93609.75;;;17.80;52.99
30819;BME280;17546;42.674;23.284;2022-11-18T09:14:33;93595.56;;;16.31;56.20
30819;BME280;17546;42.674;23.284;2022-11-18T09:16:59;93615.13;;;17.61;53.03
30819;BME280;17546;42.674;23.284;2022-11-18T09:19:24;93593.84;;;17.32;53.66
30819;BME280;17546;42.674;23.284;2022-11-18T09:21:50;93594.88;;;17.70;52.92
30819;BME280;17546;42.674;23.284;2022-11-18T09:24:15;93591.28;;;17.52;52.99
30819;BME280;17546;42.674;23.284;2022-11-18T09:26:40;93584.28;;;17.68;52.94
30819;BME280;17546;42.674;23.284;2022-11-18T09:29:06;93604.34;;;18.25;52.23
30819;BME280;17546;42.674;23.284;2022-11-18T09:31:33;93579.69;;;17.81;52.38
30819;BME280;17546;42.674;23.284;2022-11-18T09:33:59;93579.88;;;18.60;51.42
30819;BME280;17546;42.674;23.284;2022-11-18T09:36:25;93583.41;;;18.78;49.80
30819;BME280;17546;42.674;23.284;2022-11-18T09:39:00;93569.19;;;18.76;50.81
30819;BME280;17546;42.674;23.284;2022-11-18T09:41:47;93557.63;;;19.34;49.50
30819;BME280;17546;42.674;23.284;2022-11-18T09:47:36;93541.06;;;19.65;48.64
30819;BME280;17546;42.674;23.284;2022-11-18T09:50:09;93521.03;;;19.78;47.91
30819;BME280;17546;42.674;23.284;2022-11-18T09:52:42;93520.28;;;19.78;47.52
30819;BME280;17546;42.674;23.284;2022-11-18T09:55:15;93527.16;;;19.67;46.89
30819;BME280;17546;42.674;23.284;2022-11-18T09:57:50;93526.81;;;19.90;46.87
30819;BME280;17546;42.674;23.284;2022-11-18T10:00:23;93511.84;;;19.78;46.70
30819;BME280;17546;42.674;23.284;2022-11-18T10:08:32;93512.75;;;19.90;46.07
30819;BME280;17546;42.674;23.284;2022-11-18T10:11:21;93516.19;;;19.61;46.51
30819;BME280;17546;42.674;23.284;2022-11-18T10:16:41;93537.97;;;20.17;44.99
30819;BME280;17546;42.674;23.284;2022-11-18T10:24:42;93500.13;;;20.57;43.91
30819;BME280;17546;42.674;23.284;2022-11-18T10:27:11;93489.28;;;20.54;43.71
30819;BME280;17546;42.674;23.284;2022-11-18T10:29:37;93485.00;;;20.62;43.67
30819;BME280;17546;42.674;23.284;2022-11-18T10:34:29;93503.97;;;21.22;42.72
30819;BME280;17546;42.674;23.284;2022-11-18T10:37:05;93489.72;;;21.30;43.02
30819;BME280;17546;42.674;23.284;2022-11-18T10:39:31;93482.41;;;21.46;42.40
30819;BME280;17546;42.674;23.284;2022-11-18T10:42:04;93472.50;;;21.36;42.31
30819;BME280;17546;42.674;23.284;2022-11-18T10:44:38;93484.88;;;21.62;42.47
30819;BME280;17546;42.674;23.284;2022-11-18T10:47:27;93489.84;;;21.42;41.55
30819;BME280;17546;42.674;23.284;2022-11-18T10:49:56;93475.81;;;21.63;41.15
30819;BME280;17546;42.674;23.284;2022-11-18T10:52:23;93454.69;;;21.43;41.58
30819;BME280;17546;42.674;23.284;2022-11-18T10:55:25;93453.41;;;21.65;40.99
30819;BME280;17546;42.674;23.284;2022-11-18T10:58:15;93450.59;;;21.65;41.23
30819;BME280;17546;42.674;23.284;2022-11-18T11:00:41;93455.09;;;21.59;41.08
30819;BME280;17546;42.674;23.284;2022-11-18T11:03:34;93451.50;;;21.58;41.01
30819;BME280;17546;42.674;23.284;2022-11-18T11:06:28;93455.22;;;21.82;40.69
30819;BME280;17546;42.674;23.284;2022-11-18T11:09:00;93458.72;;;21.93;41.37
30819;BME280;17546;42.674;23.284;2022-11-18T11:11:32;93449.16;;;21.55;41.10
30819;BME280;17546;42.674;23.284;2022-11-18T11:17:01;93458.13;;;21.94;40.06
30819;BME280;17546;42.674;23.284;2022-11-18T11:22:12;93423.75;;;21.64;40.69
30819;BME280;17546;42.674;23.284;2022-11-18T11:24:38;93426.53;;;21.43;41.26
30819;BME280;17546;42.674;23.284;2022-11-18T11:27:10;93432.63;;;21.71;40.76
30819;BME280;17546;42.674;23.284;2022-11-18T11:29:59;93414.16;;;21.58;41.24
30819;BME280;17546;42.674;23.284;2022-11-18T11:38:00;93420.66;;;21.60;42.06
30819;BME280;17546;42.674;23.284;2022-11-18T11:40:38;93407.53;;;21.75;41.72
30819;BME280;17546;42.674;23.284;2022-11-18T11:43:26;93412.69;;;21.57;41.26
30819;BME280;17546;42.674;23.284;2022-11-18T11:51:30;93399.88;;;21.87;41.63
30819;BME280;17546;42.674;23.284;2022-11-18T11:54:35;93408.72;;;21.93;41.50
30819;BME280;17546;42.674;23.284;2022-11-18T11:57:38;93395.63;;;21.98;40.95
30819;BME280;17546;42.674;23.284;2022-11-18T12:00:18;93384.72;;;21.92;41.03
30819;BME280;17546;42.674;23.284;2022-11-18T12:03:03;93403.22;;;21.95;40.44
30819;BME280;17546;42.674;23.284;2022-11-18T12:05:36;93402.75;;;21.77;40.79
30819;BME280;17546;42.674;23.284;2022-11-18T12:08:12;93399.66;;;21.52;41.44
30819;BME280;17546;42.674;23.284;2022-11-18T12:10:52;93401.63;;;21.92;41.07
30819;BME280;17546;42.674;23.284;2022-11-18T12:19:12;93381.91;;;21.71;41.88
30819;BME280;17546;42.674;23.284;2022-11-18T12:24:29;93378.22;;;21.68;41.96
30819;BME280;17546;42.674;23.284;2022-11-18T12:32:40;93350.97;;;21.30;42.93
30819;BME280;17546;42.674;23.284;2022-11-18T12:37:57;93369.75;;;21.15;43.54
30819;BME280;17546;42.674;23.284;2022-11-18T12:43:00;93352.34;;;21.29;43.48
30819;BME280;17546;42.674;23.284;2022-11-18T12:50:54;93343.81;;;20.85;43.57
30819;BME280;17546;42.674;23.284;2022-11-18T12:53:39;93330.81;;;20.80;41.47
30819;BME280;17546;42.674;23.284;2022-11-18T12:56:22;93332.59;;;21.07;41.99
30819;BME280;17546;42.674;23.284;2022-11-18T12:58:49;93313.16;;;21.11;41.53
30819;BME280;17546;42.674;23.284;2022-11-18T13:01:20;93319.94;;;21.18;40.87
30819;BME280;17546;42.674;23.284;2022-11-18T13:03:46;93314.91;;;20.95;40.28
30819;BME280;17546;42.674;23.284;2022-11-18T13:06:30;93294.22;;;21.33;38.18
30819;BME280;17546;42.674;23.284;2022-11-18T13:08:59;93287.63;;;20.97;38.06
30819;BME280;17546;42.674;23.284;2022-11-18T13:11:27;93284.53;;;21.46;37.08
30819;BME280;17546;42.674;23.284;2022-11-18T13:14:29;93283.09;;;21.57;36.80
30819;BME280;17546;42.674;23.284;2022-11-18T13:17:32;93299.66;;;21.96;35.86
30819;BME280;17546;42.674;23.284;2022-11-18T13:20:28;93306.22;;;22.67;35.23
30819;BME280;17546;42.674;23.284;2022-11-18T13:26:12;93276.75;;;22.46;35.15
30819;BME280;17546;42.674;23.284;2022-11-18T13:28:59;93293.53;;;22.33;36.02
30819;BME280;17546;42.674;23.284;2022-11-18T13:31:54;93284.72;;;22.38;35.90
30819;BME280;17546;42.674;23.284;2022-11-18T13:34:27;93264.81;;;21.79;36.00
30819;BME280;17546;42.674;23.284;2022-11-18T13:36:54;93256.34;;;21.46;36.79
30819;BME280;17546;42.674;23.284;2022-11-18T13:39:29;93244.47;;;21.26;36.32
30819;BME280;17546;42.674;23.284;2022-11-18T13:42:13;93245.38;;;21.95;35.80
30819;BME280;17546;42.674;23.284;2022-11-18T13:45:01;93242.56;;;21.95;35.53
30819;BME280;17546;42.674;23.284;2022-11-18T13:47:45;93262.88;;;21.94;35.98
30819;BME280;17546;42.674;23.284;2022-11-18T13:50:29;93256.31;;;22.13;35.60
30819;BME280;17546;42.674;23.284;2022-11-18T13:55:33;93273.59;;;21.74;36.00
30819;BME280;17546;42.674;23.284;2022-11-18T13:58:20;93267.91;;;21.95;36.21
30819;BME280;17546;42.674;23.284;2022-11-18T14:00:56;93262.53;;;22.68;35.49
30819;BME280;17546;42.674;23.284;2022-11-18T14:03:25;93276.09;;;22.24;35.89
30819;BME280;17546;42.674;23.284;2022-11-18T14:05:53;93261.78;;;22.32;35.92
30819;BME280;17546;42.674;23.284;2022-11-18T14:08:26;93268.31;;;22.01;35.79
30819;BME280;17546;42.674;23.284;2022-11-18T14:10:51;93246.06;;;21.84;36.24
30819;BME280;17546;42.674;23.284;2022-11-18T14:15:48;93248.78;;;22.27;34.38
30819;BME280;17546;42.674;23.284;2022-11-18T14:18:29;93248.31;;;22.42;34.17
30819;BME280;17546;42.674;23.284;2022-11-18T14:20:56;93249.66;;;22.41;34.26
30819;BME280;17546;42.674;23.284;2022-11-18T14:23:33;93268.44;;;22.72;34.07
30819;BME280;17546;42.674;23.284;2022-11-18T14:26:03;93257.16;;;22.60;33.56
30819;BME280;17546;42.674;23.284;2022-11-18T14:28:33;93248.56;;;22.70;33.97
30819;BME280;17546;42.674;23.284;2022-11-18T14:34:16;93257.13;;;22.48;33.46
30819;BME280;17546;42.674;23.284;2022-11-18T14:36:49;93254.06;;;22.68;32.90
30819;BME280;17546;42.674;23.284;2022-11-18T14:39:30;93251.88;;;22.55;34.11
30819;BME280;17546;42.674;23.284;2022-11-18T14:42:15;93257.97;;;22.39;34.24
30819;BME280;17546;42.674;23.284;2022-11-18T14:44:41;93244.16;;;21.65;34.98
30819;BME280;17546;42.674;23.284;2022-11-18T14:47:33;93275.19;;;21.98;34.64